No data was retrieved for https://query.yahooapis.com/v1/public/yql?q=select+%2A+from+weather.forecast+where+woeid%3D860853&format=xml&u=c



Visit our other weather sites:

Template documentation
and downloads

And another site



Nearby METAR Reports

   
EBAW - Antwerp
Updated: 27-01-2020 18:20
Mostly Cloudy  
Mostly Cloudy  
   Wind: South 4.6 m/s
Wind: South 4.6 m/s
Temperature: 9°C
Wind Chill: 7°C
Dew Point: 6°C
Humidity: 82%
Barometer: 1000 hPa
Clouds: Mostly Cloudy
Visibility: More than 10 km
Cloud details: Few Clouds 1400 ft,
Mostly Cloudy 2000 ft
EBAW 271720Z 18009KT 9999 FEW014 BKN020 09/06 Q1000 TEMPO BKN013
EBLG - Liège
Updated: 27-01-2020 18:20
Light Showers, Rain, Mostly Cloudy  
Light Showers, Rain, Mostly Cloudy  
   Wind: South 6.2 m/s
Wind: South 6.2 m/s
Temperature: 7°C
Wind Chill: 3°C
Dew Point: 6°C
Humidity: 93%
Barometer: 1002 hPa
Clouds: Mostly Cloudy
Visibility: More than 10 km
Cloud details: Partly Cloudy 900 ft,
Mostly Cloudy 2600 ft
EBLG 271720Z 19012KT 9999 -SHRA SCT009 BKN026 07/06 Q1002 NOSIG
EBCV - Mons/Bergen
Updated: 27-01-2020 18:25
Overcast  
Overcast  
   Wind: South 6.2 m/s
Wind: South 6.2 m/s
Temperature: 9°C
Wind Chill: 6°C
Dew Point: 7°C
Humidity: 87%
Barometer: 1000 hPa
Clouds: Overcast
Cloud details: Mostly Cloudy 1500 ft,
Overcast 4000 ft
EBCV 271725Z AUTO 19012KT //// BKN015/// OVC040/// 09/07 Q1000 WHT
EHBK - Maastricht
Updated: 27-01-2020 18:25
Overcast  
Overcast  
   Wind: South 4.6 m/s
Wind: South 4.6 m/s
Temperature: 8°C
Wind Chill: 5°C
Dew Point: 6°C
Humidity: 87%
Barometer: 1002 hPa
Clouds: Overcast
Visibility: More than 10 km
Cloud details: Partly Cloudy 1200 ft,
Partly Cloudy 1500 ft,
Overcast 2700 ft
EHBK 271725Z AUTO 18009KT 9999 SCT012 SCT015 OVC027 08/06 Q1002 TEMPO BKN014
ELLX - Luxemburg
Updated: 27-01-2020 18:20
Light Rain, Mostly Cloudy  
Light Rain, Mostly Cloudy  
   Wind: SSW 5.7 m/s
Wind: SSW 5.7 m/s
Temperature: 6°C
Wind Chill: 2°C
Dew Point: 5°C
Humidity: 93%
Barometer: 1005 hPa
Clouds: Mostly Cloudy
Visibility: 8 km
Cloud details: Partly Cloudy 500 ft,
Mostly Cloudy 800 ft
ELLX 271720Z 20011KT 8000 -RA SCT005 BKN008 06/05 Q1005 NOSIG
EBOS - Oostende
Updated: 27-01-2020 18:20
Partly Cloudy  
Partly Cloudy  
   Wind: SSE 6.2 m/s
Wind: SSE 6.2 m/s
Temperature: 8°C
Wind Chill: 4°C
Dew Point: 6°C
Humidity: 87%
Barometer: 998 hPa
Clouds: Partly Cloudy
Visibility: More than 10 km
Cloud details: Few Clouds 2200 ft,
Partly Cloudy 4400 ft
EBOS 271720Z 16012KT 9999 FEW022TCU SCT044 08/06 Q0998 TEMPO 4000 RA

Script developed by  Saratoga-weather.org Adapted for the template by  Weerstation Leuven

You find our weather info also at:

Weather Underground

Equipment we use:

Weather-station
Davis Vantage Vue

Weather-program
WeatherCat

Provider
one.com

Davis Vantage Vue

WeatherCat

one.com